map of RNB home
RNB - Airport
Location
City:  Ronneby, Blekinge län, Sweden
Name:Ronneby AB, F17
ICAO:ESDF
IATA:RNB

Details
Type:Airport (Aerodrome, Airfield)
Use:Public/Civil, Military
Latitude:56°16'00"N (56.266667)
Longitude:15°15'54"E (15.265000)
Datum:WGS 1984
Elevation:191 ft (58 m)
Variation:4.66°E (WMM2015 magnetic declination)
0.15° annual change
Runways:1
Longest:7648 × 148 ft (2331 × 45 m), paved

Time
Time Zone:UTC+1 (DST+2)
Local Time:

Weather
METAR:ESDF 111450Z 04007KT 9999 BKN018 01/00 Q0988

Related Locations
Nearby:
Farthest:CHT: 11428 mi / 18392 km
Waitangi [Tuuta], CIT, NZ

Find:

   beyond  
but within

Other Information
Maps:
NOTAMs:
Links:
Sources:

  
flag of Sweden   

Sectional Chart

Flight Planning
at skyvector.com

Satellite Image

Google Maps Satellite view

 

Copyright © 2004-2017 Karl L. Swartz. All rights reserved.
The Great Circle Mapper name and logo are trademarks of the Great Circle Mapper.
All other trademarks mentioned herein belong to their respective owners.
Please see credits for attibutions and further copyright information.

  Follow gcmap on Facebook Follow gcmap on Twitter Follow gcmap on Google+ GCmap on LinkedIn

hCard Microformat

Geo Microformat